sensor_id;sensor_type;location;lat;lon;timestamp;P1;durP1;ratioP1;P2;durP2;ratioP2
12591;SDS011;6361;52.120;5.108;2023-04-24T00:02:02;3.70;;;1.60;;
12591;SDS011;6361;52.120;5.108;2023-04-24T00:04:28;5.05;;;2.05;;
12591;SDS011;6361;52.120;5.108;2023-04-24T00:06:54;3.90;;;2.75;;
12591;SDS011;6361;52.120;5.108;2023-04-24T00:09:22;12.70;;;2.38;;
12591;SDS011;6361;52.120;5.108;2023-04-24T00:11:47;2.53;;;1.58;;
12591;SDS011;6361;52.120;5.108;2023-04-24T00:14:13;1.33;;;1.02;;
12591;SDS011;6361;52.120;5.108;2023-04-24T00:16:38;1.58;;;0.90;;
12591;SDS011;6361;52.120;5.108;2023-04-24T00:19:03;3.05;;;0.70;;
12591;SDS011;6361;52.120;5.108;2023-04-24T00:21:30;1.08;;;0.70;;
12591;SDS011;6361;52.120;5.108;2023-04-24T00:23:57;0.98;;;0.90;;
12591;SDS011;6361;52.120;5.108;2023-04-24T00:26:23;1.90;;;1.20;;
12591;SDS011;6361;52.120;5.108;2023-04-24T00:28:48;1.40;;;1.02;;
12591;SDS011;6361;52.120;5.108;2023-04-24T00:31:16;2.67;;;1.25;;
12591;SDS011;6361;52.120;5.108;2023-04-24T00:33:41;1.55;;;1.10;;
12591;SDS011;6361;52.120;5.108;2023-04-24T00:36:07;2.05;;;1.23;;
12591;SDS011;6361;52.120;5.108;2023-04-24T00:38:32;3.55;;;1.75;;
12591;SDS011;6361;52.120;5.108;2023-04-24T00:40:57;2.67;;;1.58;;
12591;SDS011;6361;52.120;5.108;2023-04-24T00:43:23;3.17;;;1.98;;
12591;SDS011;6361;52.120;5.108;2023-04-24T00:45:48;2.20;;;1.80;;
12591;SDS011;6361;52.120;5.108;2023-04-24T00:48:14;2.78;;;1.70;;
12591;SDS011;6361;52.120;5.108;2023-04-24T00:50:39;2.00;;;1.20;;
12591;SDS011;6361;52.120;5.108;2023-04-24T00:53:06;3.05;;;1.58;;
12591;SDS011;6361;52.120;5.108;2023-04-24T00:55:31;4.90;;;1.80;;
12591;SDS011;6361;52.120;5.108;2023-04-24T00:57:57;2.17;;;1.70;;
12591;SDS011;6361;52.120;5.108;2023-04-24T01:00:23;2.35;;;1.85;;
12591;SDS011;6361;52.120;5.108;2023-04-24T01:02:49;3.00;;;2.10;;
12591;SDS011;6361;52.120;5.108;2023-04-24T01:05:14;4.07;;;2.47;;
12591;SDS011;6361;52.120;5.108;2023-04-24T01:07:42;4.03;;;2.90;;
12591;SDS011;6361;52.120;5.108;2023-04-24T01:10:10;5.78;;;4.10;;
12591;SDS011;6361;52.120;5.108;2023-04-24T01:12:36;6.28;;;4.10;;
12591;SDS011;6361;52.120;5.108;2023-04-24T01:15:03;6.50;;;4.47;;
12591;SDS011;6361;52.120;5.108;2023-04-24T01:17:29;5.72;;;4.70;;
12591;SDS011;6361;52.120;5.108;2023-04-24T01:19:54;6.18;;;4.78;;
12591;SDS011;6361;52.120;5.108;2023-04-24T01:22:21;6.72;;;4.68;;
12591;SDS011;6361;52.120;5.108;2023-04-24T01:24:47;6.97;;;4.95;;
12591;SDS011;6361;52.120;5.108;2023-04-24T01:27:12;8.40;;;5.20;;
12591;SDS011;6361;52.120;5.108;2023-04-24T01:29:38;6.38;;;4.72;;
12591;SDS011;6361;52.120;5.108;2023-04-24T01:32:04;6.60;;;5.10;;
12591;SDS011;6361;52.120;5.108;2023-04-24T01:34:30;8.88;;;5.53;;
12591;SDS011;6361;52.120;5.108;2023-04-24T01:36:56;6.43;;;5.50;;
12591;SDS011;6361;52.120;5.108;2023-04-24T01:39:21;7.85;;;5.40;;
12591;SDS011;6361;52.120;5.108;2023-04-24T01:41:48;7.25;;;5.95;;
12591;SDS011;6361;52.120;5.108;2023-04-24T01:44:14;7.90;;;5.63;;
12591;SDS011;6361;52.120;5.108;2023-04-24T01:46:40;7.72;;;6.13;;
12591;SDS011;6361;52.120;5.108;2023-04-24T01:49:06;6.32;;;5.20;;
12591;SDS011;6361;52.120;5.108;2023-04-24T01:51:31;7.25;;;5.75;;
12591;SDS011;6361;52.120;5.108;2023-04-24T01:53:56;9.32;;;6.03;;
12591;SDS011;6361;52.120;5.108;2023-04-24T01:56:22;7.00;;;5.85;;
12591;SDS011;6361;52.120;5.108;2023-04-24T01:58:48;10.23;;;6.80;;
12591;SDS011;6361;52.120;5.108;2023-04-24T02:01:17;8.50;;;6.18;;
12591;SDS011;6361;52.120;5.108;2023-04-24T02:03:43;9.18;;;6.97;;
12591;SDS011;6361;52.120;5.108;2023-04-24T02:06:09;9.20;;;6.50;;
12591;SDS011;6361;52.120;5.108;2023-04-24T02:08:34;8.88;;;6.80;;
12591;SDS011;6361;52.120;5.108;2023-04-24T02:10:59;8.90;;;6.75;;
12591;SDS011;6361;52.120;5.108;2023-04-24T02:13:26;9.52;;;6.65;;
12591;SDS011;6361;52.120;5.108;2023-04-24T02:15:52;9.40;;;6.55;;
12591;SDS011;6361;52.120;5.108;2023-04-24T02:18:17;6.32;;;4.75;;
12591;SDS011;6361;52.120;5.108;2023-04-24T02:20:42;6.15;;;4.60;;
12591;SDS011;6361;52.120;5.108;2023-04-24T02:23:08;4.53;;;3.33;;
12591;SDS011;6361;52.120;5.108;2023-04-24T02:25:33;5.22;;;3.00;;
12591;SDS011;6361;52.120;5.108;2023-04-24T02:27:59;4.32;;;2.85;;
12591;SDS011;6361;52.120;5.108;2023-04-24T02:30:24;3.20;;;2.60;;
12591;SDS011;6361;52.120;5.108;2023-04-24T02:32:50;5.50;;;2.60;;
12591;SDS011;6361;52.120;5.108;2023-04-24T02:35:16;3.10;;;2.35;;
12591;SDS011;6361;52.120;5.108;2023-04-24T02:37:41;3.78;;;2.65;;
12591;SDS011;6361;52.120;5.108;2023-04-24T02:40:07;3.88;;;2.58;;
12591;SDS011;6361;52.120;5.108;2023-04-24T02:42:33;3.65;;;2.60;;
12591;SDS011;6361;52.120;5.108;2023-04-24T02:44:58;3.28;;;2.75;;
12591;SDS011;6361;52.120;5.108;2023-04-24T02:47:23;3.97;;;2.50;;
12591;SDS011;6361;52.120;5.108;2023-04-24T02:49:49;3.20;;;2.45;;
12591;SDS011;6361;52.120;5.108;2023-04-24T02:52:14;4.25;;;2.40;;
12591;SDS011;6361;52.120;5.108;2023-04-24T02:54:40;4.63;;;3.08;;
12591;SDS011;6361;52.120;5.108;2023-04-24T02:57:05;3.38;;;2.90;;
12591;SDS011;6361;52.120;5.108;2023-04-24T02:59:31;6.45;;;3.05;;
12591;SDS011;6361;52.120;5.108;2023-04-24T03:01:56;5.40;;;3.40;;
12591;SDS011;6361;52.120;5.108;2023-04-24T03:04:22;5.07;;;3.45;;
12591;SDS011;6361;52.120;5.108;2023-04-24T03:06:48;4.88;;;2.95;;
12591;SDS011;6361;52.120;5.108;2023-04-24T03:09:13;5.30;;;2.85;;
12591;SDS011;6361;52.120;5.108;2023-04-24T03:11:38;3.58;;;2.40;;
12591;SDS011;6361;52.120;5.108;2023-04-24T03:14:05;3.55;;;1.88;;
12591;SDS011;6361;52.120;5.108;2023-04-24T03:16:30;4.13;;;2.40;;
12591;SDS011;6361;52.120;5.108;2023-04-24T03:18:56;3.13;;;2.10;;
12591;SDS011;6361;52.120;5.108;2023-04-24T03:21:22;3.45;;;2.33;;
12591;SDS011;6361;52.120;5.108;2023-04-24T03:23:47;3.30;;;1.75;;
12591;SDS011;6361;52.120;5.108;2023-04-24T03:26:12;3.10;;;2.03;;
12591;SDS011;6361;52.120;5.108;2023-04-24T03:28:38;2.90;;;2.35;;
12591;SDS011;6361;52.120;5.108;2023-04-24T03:31:03;3.70;;;2.53;;
12591;SDS011;6361;52.120;5.108;2023-04-24T03:33:28;4.55;;;3.00;;
12591;SDS011;6361;52.120;5.108;2023-04-24T03:35:54;4.32;;;3.50;;
12591;SDS011;6361;52.120;5.108;2023-04-24T03:38:19;4.80;;;3.63;;
12591;SDS011;6361;52.120;5.108;2023-04-24T03:40:45;4.95;;;3.83;;
12591;SDS011;6361;52.120;5.108;2023-04-24T03:43:10;5.25;;;3.90;;
12591;SDS011;6361;52.120;5.108;2023-04-24T03:45:35;6.38;;;4.05;;
12591;SDS011;6361;52.120;5.108;2023-04-24T03:48:01;7.18;;;4.97;;
12591;SDS011;6361;52.120;5.108;2023-04-24T03:50:26;6.50;;;4.95;;
12591;SDS011;6361;52.120;5.108;2023-04-24T03:52:52;6.82;;;5.13;;
12591;SDS011;6361;52.120;5.108;2023-04-24T03:55:17;6.97;;;5.53;;
12591;SDS011;6361;52.120;5.108;2023-04-24T03:57:43;7.65;;;5.25;;
12591;SDS011;6361;52.120;5.108;2023-04-24T04:00:08;7.18;;;5.50;;
12591;SDS011;6361;52.120;5.108;2023-04-24T04:02:34;7.57;;;5.30;;
12591;SDS011;6361;52.120;5.108;2023-04-24T04:05:00;8.65;;;5.28;;
12591;SDS011;6361;52.120;5.108;2023-04-24T04:07:25;7.20;;;5.43;;
12591;SDS011;6361;52.120;5.108;2023-04-24T04:09:50;7.03;;;5.53;;
12591;SDS011;6361;52.120;5.108;2023-04-24T04:12:17;6.65;;;4.90;;
12591;SDS011;6361;52.120;5.108;2023-04-24T04:14:43;9.05;;;5.35;;
12591;SDS011;6361;52.120;5.108;2023-04-24T04:17:08;6.90;;;5.25;;
12591;SDS011;6361;52.120;5.108;2023-04-24T04:19:33;7.65;;;5.30;;
12591;SDS011;6361;52.120;5.108;2023-04-24T04:21:59;8.00;;;5.22;;
12591;SDS011;6361;52.120;5.108;2023-04-24T04:24:24;7.68;;;5.50;;
12591;SDS011;6361;52.120;5.108;2023-04-24T04:26:51;6.78;;;5.15;;
12591;SDS011;6361;52.120;5.108;2023-04-24T04:29:21;8.23;;;4.70;;
12591;SDS011;6361;52.120;5.108;2023-04-24T04:31:47;7.43;;;5.50;;
12591;SDS011;6361;52.120;5.108;2023-04-24T04:34:15;7.57;;;5.57;;
12591;SDS011;6361;52.120;5.108;2023-04-24T04:36:41;7.53;;;5.68;;
12591;SDS011;6361;52.120;5.108;2023-04-24T04:39:08;7.22;;;5.50;;
12591;SDS011;6361;52.120;5.108;2023-04-24T04:41:33;9.65;;;5.97;;
12591;SDS011;6361;52.120;5.108;2023-04-24T04:44:05;8.55;;;5.88;;
12591;SDS011;6361;52.120;5.108;2023-04-24T04:46:31;9.15;;;5.57;;
12591;SDS011;6361;52.120;5.108;2023-04-24T04:49:02;7.40;;;5.00;;
12591;SDS011;6361;52.120;5.108;2023-04-24T04:51:27;6.38;;;4.65;;
12591;SDS011;6361;52.120;5.108;2023-04-24T04:53:53;6.10;;;4.65;;
12591;SDS011;6361;52.120;5.108;2023-04-24T04:56:18;5.93;;;4.20;;
12591;SDS011;6361;52.120;5.108;2023-04-24T04:58:44;7.00;;;4.75;;
12591;SDS011;6361;52.120;5.108;2023-04-24T05:01:09;7.68;;;4.40;;
12591;SDS011;6361;52.120;5.108;2023-04-24T05:03:35;5.85;;;4.30;;
12591;SDS011;6361;52.120;5.108;2023-04-24T05:06:01;5.82;;;4.28;;
12591;SDS011;6361;52.120;5.108;2023-04-24T05:08:27;5.70;;;3.90;;
12591;SDS011;6361;52.120;5.108;2023-04-24T05:10:52;2.55;;;1.90;;
12591;SDS011;6361;52.120;5.108;2023-04-24T05:13:18;2.35;;;1.70;;
12591;SDS011;6361;52.120;5.108;2023-04-24T05:15:43;2.70;;;1.55;;
12591;SDS011;6361;52.120;5.108;2023-04-24T05:18:11;3.15;;;1.80;;
12591;SDS011;6361;52.120;5.108;2023-04-24T05:20:36;1.73;;;1.30;;
12591;SDS011;6361;52.120;5.108;2023-04-24T05:23:01;2.53;;;1.67;;
12591;SDS011;6361;52.120;5.108;2023-04-24T05:25:27;1.33;;;0.90;;
12591;SDS011;6361;52.120;5.108;2023-04-24T05:27:52;2.17;;;1.00;;
12591;SDS011;6361;52.120;5.108;2023-04-24T05:30:18;1.10;;;0.90;;
12591;SDS011;6361;52.120;5.108;2023-04-24T05:32:44;2.05;;;1.00;;
12591;SDS011;6361;52.120;5.108;2023-04-24T05:35:10;2.47;;;0.80;;
12591;SDS011;6361;52.120;5.108;2023-04-24T05:37:35;5.00;;;0.70;;
12591;SDS011;6361;52.120;5.108;2023-04-24T05:40:00;2.35;;;0.70;;
12591;SDS011;6361;52.120;5.108;2023-04-24T05:42:26;4.47;;;0.90;;
12591;SDS011;6361;52.120;5.108;2023-04-24T05:44:51;0.88;;;0.80;;
12591;SDS011;6361;52.120;5.108;2023-04-24T05:47:18;2.75;;;0.90;;
12591;SDS011;6361;52.120;5.108;2023-04-24T05:49:44;2.17;;;1.30;;
12591;SDS011;6361;52.120;5.108;2023-04-24T05:52:09;1.70;;;1.33;;
12591;SDS011;6361;52.120;5.108;2023-04-24T05:54:35;6.05;;;1.65;;
12591;SDS011;6361;52.120;5.108;2023-04-24T05:57:00;4.03;;;1.80;;
12591;SDS011;6361;52.120;5.108;2023-04-24T05:59:29;2.00;;;1.60;;
12591;SDS011;6361;52.120;5.108;2023-04-24T06:01:54;6.38;;;1.60;;
12591;SDS011;6361;52.120;5.108;2023-04-24T06:04:20;5.55;;;2.17;;
12591;SDS011;6361;52.120;5.108;2023-04-24T06:06:46;3.45;;;2.05;;
12591;SDS011;6361;52.120;5.108;2023-04-24T06:09:11;3.30;;;2.70;;
12591;SDS011;6361;52.120;5.108;2023-04-24T06:11:37;4.75;;;3.40;;
12591;SDS011;6361;52.120;5.108;2023-04-24T06:14:02;8.10;;;5.75;;
12591;SDS011;6361;52.120;5.108;2023-04-24T06:16:28;11.48;;;7.47;;
12591;SDS011;6361;52.120;5.108;2023-04-24T06:18:54;12.65;;;8.15;;
12591;SDS011;6361;52.120;5.108;2023-04-24T06:21:20;14.10;;;9.32;;
12591;SDS011;6361;52.120;5.108;2023-04-24T06:23:45;19.33;;;9.95;;
12591;SDS011;6361;52.120;5.108;2023-04-24T06:26:11;20.05;;;10.73;;
12591;SDS011;6361;52.120;5.108;2023-04-24T06:28:37;18.17;;;10.85;;
12591;SDS011;6361;52.120;5.108;2023-04-24T06:31:02;20.83;;;11.70;;
12591;SDS011;6361;52.120;5.108;2023-04-24T06:33:27;23.70;;;12.27;;
12591;SDS011;6361;52.120;5.108;2023-04-24T06:35:53;24.38;;;13.05;;
12591;SDS011;6361;52.120;5.108;2023-04-24T06:38:18;25.42;;;13.93;;
12591;SDS011;6361;52.120;5.108;2023-04-24T06:40:44;24.90;;;14.02;;
12591;SDS011;6361;52.120;5.108;2023-04-24T06:43:11;24.40;;;13.35;;
12591;SDS011;6361;52.120;5.108;2023-04-24T06:45:37;23.52;;;13.57;;
12591;SDS011;6361;52.120;5.108;2023-04-24T06:48:04;22.77;;;13.63;;
12591;SDS011;6361;52.120;5.108;2023-04-24T06:50:29;21.65;;;12.10;;
12591;SDS011;6361;52.120;5.108;2023-04-24T06:52:55;23.23;;;12.32;;
12591;SDS011;6361;52.120;5.108;2023-04-24T06:55:21;33.35;;;13.25;;
12591;SDS011;6361;52.120;5.108;2023-04-24T06:57:46;24.65;;;12.45;;
12591;SDS011;6361;52.120;5.108;2023-04-24T07:00:13;30.17;;;11.88;;
12591;SDS011;6361;52.120;5.108;2023-04-24T07:02:39;20.85;;;11.85;;
12591;SDS011;6361;52.120;5.108;2023-04-24T07:05:04;24.05;;;11.40;;
12591;SDS011;6361;52.120;5.108;2023-04-24T07:07:30;20.90;;;11.52;;
12591;SDS011;6361;52.120;5.108;2023-04-24T07:09:55;18.88;;;11.55;;
12591;SDS011;6361;52.120;5.108;2023-04-24T07:12:21;21.90;;;11.30;;
12591;SDS011;6361;52.120;5.108;2023-04-24T07:14:47;24.73;;;10.65;;
12591;SDS011;6361;52.120;5.108;2023-04-24T07:17:13;29.38;;;11.52;;
12591;SDS011;6361;52.120;5.108;2023-04-24T07:19:38;27.63;;;11.13;;
12591;SDS011;6361;52.120;5.108;2023-04-24T07:22:03;23.50;;;10.20;;
12591;SDS011;6361;52.120;5.108;2023-04-24T07:24:29;23.80;;;9.40;;
12591;SDS011;6361;52.120;5.108;2023-04-24T07:26:57;24.58;;;9.20;;
12591;SDS011;6361;52.120;5.108;2023-04-24T07:29:22;26.35;;;9.25;;
12591;SDS011;6361;52.120;5.108;2023-04-24T07:31:47;23.38;;;9.52;;
12591;SDS011;6361;52.120;5.108;2023-04-24T07:34:13;21.05;;;7.60;;
12591;SDS011;6361;52.120;5.108;2023-04-24T07:36:38;26.33;;;7.70;;
12591;SDS011;6361;52.120;5.108;2023-04-24T07:39:04;26.13;;;8.38;;
12591;SDS011;6361;52.120;5.108;2023-04-24T07:41:30;21.52;;;7.47;;
12591;SDS011;6361;52.120;5.108;2023-04-24T07:43:56;19.95;;;6.82;;
12591;SDS011;6361;52.120;5.108;2023-04-24T07:46:21;25.50;;;7.40;;
12591;SDS011;6361;52.120;5.108;2023-04-24T07:48:48;25.38;;;7.25;;
12591;SDS011;6361;52.120;5.108;2023-04-24T07:51:14;18.92;;;6.65;;
12591;SDS011;6361;52.120;5.108;2023-04-24T07:53:40;22.95;;;5.93;;
12591;SDS011;6361;52.120;5.108;2023-04-24T07:56:06;28.20;;;6.38;;
12591;SDS011;6361;52.120;5.108;2023-04-24T07:58:31;17.83;;;5.72;;
12591;SDS011;6361;52.120;5.108;2023-04-24T08:00:56;26.48;;;5.43;;
12591;SDS011;6361;52.120;5.108;2023-04-24T08:03:22;21.20;;;5.53;;
12591;SDS011;6361;52.120;5.108;2023-04-24T08:05:47;18.98;;;4.38;;
12591;SDS011;6361;52.120;5.108;2023-04-24T08:08:12;22.38;;;4.65;;
12591;SDS011;6361;52.120;5.108;2023-04-24T08:10:38;25.10;;;4.70;;
12591;SDS011;6361;52.120;5.108;2023-04-24T08:13:04;17.48;;;4.05;;
12591;SDS011;6361;52.120;5.108;2023-04-24T08:15:30;16.58;;;3.42;;
12591;SDS011;6361;52.120;5.108;2023-04-24T08:17:55;16.25;;;3.17;;
12591;SDS011;6361;52.120;5.108;2023-04-24T08:20:20;18.05;;;4.47;;
12591;SDS011;6361;52.120;5.108;2023-04-24T08:22:46;16.63;;;4.22;;
12591;SDS011;6361;52.120;5.108;2023-04-24T08:25:12;19.10;;;3.05;;
12591;SDS011;6361;52.120;5.108;2023-04-24T08:27:38;15.50;;;3.20;;
12591;SDS011;6361;52.120;5.108;2023-04-24T08:30:04;14.65;;;3.00;;
12591;SDS011;6361;52.120;5.108;2023-04-24T08:32:30;12.07;;;3.03;;
12591;SDS011;6361;52.120;5.108;2023-04-24T08:34:56;11.30;;;2.72;;
12591;SDS011;6361;52.120;5.108;2023-04-24T08:37:22;12.77;;;3.00;;
12591;SDS011;6361;52.120;5.108;2023-04-24T08:39:48;14.80;;;3.05;;
12591;SDS011;6361;52.120;5.108;2023-04-24T08:42:14;13.48;;;2.92;;
12591;SDS011;6361;52.120;5.108;2023-04-24T08:44:40;15.88;;;2.83;;
12591;SDS011;6361;52.120;5.108;2023-04-24T08:47:06;16.52;;;3.00;;
12591;SDS011;6361;52.120;5.108;2023-04-24T08:49:33;22.38;;;3.45;;
12591;SDS011;6361;52.120;5.108;2023-04-24T08:51:59;10.45;;;3.30;;
12591;SDS011;6361;52.120;5.108;2023-04-24T08:54:25;16.35;;;2.83;;
12591;SDS011;6361;52.120;5.108;2023-04-24T08:56:50;18.02;;;3.30;;
12591;SDS011;6361;52.120;5.108;2023-04-24T08:59:17;15.60;;;2.92;;
12591;SDS011;6361;52.120;5.108;2023-04-24T09:01:43;16.83;;;3.50;;
12591;SDS011;6361;52.120;5.108;2023-04-24T09:04:10;15.05;;;3.28;;
12591;SDS011;6361;52.120;5.108;2023-04-24T09:06:37;15.43;;;2.88;;
12591;SDS011;6361;52.120;5.108;2023-04-24T09:09:02;13.75;;;2.95;;
12591;SDS011;6361;52.120;5.108;2023-04-24T09:11:29;16.38;;;3.60;;
12591;SDS011;6361;52.120;5.108;2023-04-24T09:13:56;18.40;;;3.40;;
12591;SDS011;6361;52.120;5.108;2023-04-24T09:16:22;10.90;;;2.95;;
12591;SDS011;6361;52.120;5.108;2023-04-24T09:18:49;14.98;;;3.13;;
12591;SDS011;6361;52.120;5.108;2023-04-24T09:21:15;11.52;;;3.20;;
12591;SDS011;6361;52.120;5.108;2023-04-24T09:23:40;10.20;;;3.08;;
12591;SDS011;6361;52.120;5.108;2023-04-24T09:26:05;11.00;;;3.30;;
12591;SDS011;6361;52.120;5.108;2023-04-24T09:31:07;12.02;;;2.67;;
12591;SDS011;6361;52.120;5.108;2023-04-24T09:33:33;13.35;;;3.00;;
12591;SDS011;6361;52.120;5.108;2023-04-24T09:35:58;11.32;;;2.47;;
12591;SDS011;6361;52.120;5.108;2023-04-24T09:38:34;9.15;;;2.50;;
12591;SDS011;6361;52.120;5.108;2023-04-24T09:41:07;10.52;;;2.63;;
12591;SDS011;6361;52.120;5.108;2023-04-24T09:43:33;12.18;;;2.20;;
12591;SDS011;6361;52.120;5.108;2023-04-24T09:46:04;6.10;;;2.15;;
12591;SDS011;6361;52.120;5.108;2023-04-24T09:48:31;8.55;;;2.03;;
12591;SDS011;6361;52.120;5.108;2023-04-24T09:51:04;11.75;;;1.75;;
12591;SDS011;6361;52.120;5.108;2023-04-24T09:53:32;8.50;;;2.03;;
12591;SDS011;6361;52.120;5.108;2023-04-24T09:56:15;9.88;;;2.05;;
12591;SDS011;6361;52.120;5.108;2023-04-24T09:58:41;6.47;;;2.05;;
12591;SDS011;6361;52.120;5.108;2023-04-24T10:01:06;10.98;;;2.10;;
12591;SDS011;6361;52.120;5.108;2023-04-24T10:03:32;7.07;;;1.50;;
12591;SDS011;6361;52.120;5.108;2023-04-24T10:05:59;9.35;;;2.20;;
12591;SDS011;6361;52.120;5.108;2023-04-24T10:08:25;11.27;;;2.03;;
12591;SDS011;6361;52.120;5.108;2023-04-24T10:10:51;5.35;;;1.33;;
12591;SDS011;6361;52.120;5.108;2023-04-24T10:13:17;3.53;;;1.33;;
12591;SDS011;6361;52.120;5.108;2023-04-24T10:15:43;5.68;;;1.20;;
12591;SDS011;6361;52.120;5.108;2023-04-24T10:18:09;2.67;;;1.10;;
12591;SDS011;6361;52.120;5.108;2023-04-24T10:20:35;2.47;;;0.85;;
12591;SDS011;6361;52.120;5.108;2023-04-24T10:23:01;5.63;;;1.33;;
12591;SDS011;6361;52.120;5.108;2023-04-24T10:25:28;3.28;;;1.05;;
12591;SDS011;6361;52.120;5.108;2023-04-24T10:27:55;6.63;;;1.02;;
12591;SDS011;6361;52.120;5.108;2023-04-24T10:30:22;6.85;;;1.40;;
12591;SDS011;6361;52.120;5.108;2023-04-24T10:32:48;6.22;;;1.30;;
12591;SDS011;6361;52.120;5.108;2023-04-24T10:35:14;6.03;;;1.33;;
12591;SDS011;6361;52.120;5.108;2023-04-24T10:37:42;9.80;;;1.40;;
12591;SDS011;6361;52.120;5.108;2023-04-24T10:40:10;6.35;;;1.25;;
12591;SDS011;6361;52.120;5.108;2023-04-24T10:42:39;3.72;;;1.13;;
12591;SDS011;6361;52.120;5.108;2023-04-24T10:45:18;4.82;;;1.10;;
12591;SDS011;6361;52.120;5.108;2023-04-24T10:50:18;4.68;;;1.10;;
12591;SDS011;6361;52.120;5.108;2023-04-24T10:52:44;7.80;;;1.40;;
12591;SDS011;6361;52.120;5.108;2023-04-24T10:55:10;6.68;;;1.10;;
12591;SDS011;6361;52.120;5.108;2023-04-24T10:57:37;6.10;;;1.20;;
12591;SDS011;6361;52.120;5.108;2023-04-24T11:00:10;4.47;;;1.17;;
12591;SDS011;6361;52.120;5.108;2023-04-24T11:02:39;8.40;;;1.58;;
12591;SDS011;6361;52.120;5.108;2023-04-24T11:05:05;9.32;;;1.60;;
12591;SDS011;6361;52.120;5.108;2023-04-24T11:10:37;10.02;;;1.60;;
12591;SDS011;6361;52.120;5.108;2023-04-24T11:13:04;7.20;;;1.48;;
12591;SDS011;6361;52.120;5.108;2023-04-24T11:15:29;7.85;;;1.58;;
12591;SDS011;6361;52.120;5.108;2023-04-24T11:17:55;7.72;;;1.73;;
12591;SDS011;6361;52.120;5.108;2023-04-24T11:20:23;7.60;;;1.35;;
12591;SDS011;6361;52.120;5.108;2023-04-24T11:22:48;5.18;;;0.82;;
12591;SDS011;6361;52.120;5.108;2023-04-24T11:25:17;4.22;;;1.15;;
12591;SDS011;6361;52.120;5.108;2023-04-24T11:27:43;4.70;;;0.85;;
12591;SDS011;6361;52.120;5.108;2023-04-24T11:30:11;2.20;;;0.70;;
12591;SDS011;6361;52.120;5.108;2023-04-24T11:32:37;2.97;;;0.82;;
12591;SDS011;6361;52.120;5.108;2023-04-24T11:35:08;3.17;;;0.77;;
12591;SDS011;6361;52.120;5.108;2023-04-24T11:37:39;2.75;;;0.90;;
12591;SDS011;6361;52.120;5.108;2023-04-24T11:40:06;5.65;;;0.80;;
12591;SDS011;6361;52.120;5.108;2023-04-24T11:42:34;3.17;;;0.90;;
12591;SDS011;6361;52.120;5.108;2023-04-24T11:45:00;9.43;;;0.88;;
12591;SDS011;6361;52.120;5.108;2023-04-24T11:47:30;6.25;;;1.17;;
12591;SDS011;6361;52.120;5.108;2023-04-24T11:49:58;7.00;;;1.10;;
12591;SDS011;6361;52.120;5.108;2023-04-24T11:52:24;7.50;;;1.20;;
12591;SDS011;6361;52.120;5.108;2023-04-24T11:54:49;4.35;;;1.10;;
12591;SDS011;6361;52.120;5.108;2023-04-24T11:57:15;10.10;;;1.60;;
12591;SDS011;6361;52.120;5.108;2023-04-24T11:59:41;6.57;;;1.20;;
12591;SDS011;6361;52.120;5.108;2023-04-24T12:02:06;6.32;;;1.30;;
12591;SDS011;6361;52.120;5.108;2023-04-24T12:04:41;7.35;;;1.50;;
12591;SDS011;6361;52.120;5.108;2023-04-24T12:07:09;8.63;;;2.58;;
12591;SDS011;6361;52.120;5.108;2023-04-24T12:09:44;6.25;;;1.52;;
12591;SDS011;6361;52.120;5.108;2023-04-24T12:12:11;7.63;;;2.17;;
12591;SDS011;6361;52.120;5.108;2023-04-24T12:14:48;7.65;;;1.30;;
12591;SDS011;6361;52.120;5.108;2023-04-24T12:17:15;5.13;;;1.30;;
12591;SDS011;6361;52.120;5.108;2023-04-24T12:19:48;8.80;;;1.77;;
12591;SDS011;6361;52.120;5.108;2023-04-24T12:22:13;7.47;;;1.60;;
12591;SDS011;6361;52.120;5.108;2023-04-24T12:24:58;8.95;;;1.67;;
12591;SDS011;6361;52.120;5.108;2023-04-24T12:27:29;11.40;;;1.95;;
12591;SDS011;6361;52.120;5.108;2023-04-24T12:29:56;7.45;;;1.80;;
12591;SDS011;6361;52.120;5.108;2023-04-24T12:32:22;9.23;;;1.65;;
12591;SDS011;6361;52.120;5.108;2023-04-24T12:34:49;7.80;;;1.83;;
12591;SDS011;6361;52.120;5.108;2023-04-24T12:37:15;12.40;;;2.17;;
12591;SDS011;6361;52.120;5.108;2023-04-24T12:39:44;13.02;;;2.15;;
12591;SDS011;6361;52.120;5.108;2023-04-24T12:42:29;9.40;;;2.00;;
12591;SDS011;6361;52.120;5.108;2023-04-24T12:44:58;7.85;;;1.70;;
12591;SDS011;6361;52.120;5.108;2023-04-24T12:47:25;8.23;;;2.13;;
12591;SDS011;6361;52.120;5.108;2023-04-24T12:49:52;13.55;;;2.50;;
12591;SDS011;6361;52.120;5.108;2023-04-24T12:52:18;15.95;;;2.45;;
12591;SDS011;6361;52.120;5.108;2023-04-24T12:54:47;14.02;;;2.40;;
12591;SDS011;6361;52.120;5.108;2023-04-24T12:57:12;10.02;;;2.30;;
12591;SDS011;6361;52.120;5.108;2023-04-24T12:59:38;10.82;;;2.28;;
12591;SDS011;6361;52.120;5.108;2023-04-24T13:02:04;8.70;;;2.50;;
12591;SDS011;6361;52.120;5.108;2023-04-24T13:04:29;14.07;;;3.00;;
12591;SDS011;6361;52.120;5.108;2023-04-24T13:06:55;11.38;;;2.50;;
12591;SDS011;6361;52.120;5.108;2023-04-24T13:09:20;15.70;;;2.55;;
12591;SDS011;6361;52.120;5.108;2023-04-24T13:11:45;13.23;;;2.78;;
12591;SDS011;6361;52.120;5.108;2023-04-24T13:14:11;12.35;;;2.78;;
12591;SDS011;6361;52.120;5.108;2023-04-24T13:16:36;21.25;;;3.33;;
12591;SDS011;6361;52.120;5.108;2023-04-24T13:19:02;16.75;;;3.13;;
12591;SDS011;6361;52.120;5.108;2023-04-24T13:21:27;13.73;;;2.70;;
12591;SDS011;6361;52.120;5.108;2023-04-24T13:23:52;18.17;;;3.08;;
12591;SDS011;6361;52.120;5.108;2023-04-24T13:26:18;14.98;;;2.83;;
12591;SDS011;6361;52.120;5.108;2023-04-24T13:28:43;11.75;;;2.72;;
12591;SDS011;6361;52.120;5.108;2023-04-24T13:31:09;8.93;;;2.53;;
12591;SDS011;6361;52.120;5.108;2023-04-24T13:33:34;11.93;;;2.65;;
12591;SDS011;6361;52.120;5.108;2023-04-24T13:36:00;15.57;;;2.80;;
12591;SDS011;6361;52.120;5.108;2023-04-24T13:38:25;10.55;;;2.60;;
12591;SDS011;6361;52.120;5.108;2023-04-24T13:40:50;9.95;;;2.85;;
12591;SDS011;6361;52.120;5.108;2023-04-24T13:43:16;12.18;;;2.67;;
12591;SDS011;6361;52.120;5.108;2023-04-24T13:45:41;13.43;;;2.85;;
12591;SDS011;6361;52.120;5.108;2023-04-24T13:48:07;15.57;;;2.85;;
12591;SDS011;6361;52.120;5.108;2023-04-24T13:50:33;11.40;;;3.15;;
12591;SDS011;6361;52.120;5.108;2023-04-24T13:52:59;12.20;;;2.25;;
12591;SDS011;6361;52.120;5.108;2023-04-24T13:55:26;11.73;;;2.67;;
12591;SDS011;6361;52.120;5.108;2023-04-24T13:57:51;12.75;;;2.83;;
12591;SDS011;6361;52.120;5.108;2023-04-24T14:00:20;13.68;;;3.20;;
12591;SDS011;6361;52.120;5.108;2023-04-24T14:02:45;11.88;;;2.67;;
12591;SDS011;6361;52.120;5.108;2023-04-24T14:05:12;10.85;;;2.83;;
12591;SDS011;6361;52.120;5.108;2023-04-24T14:07:40;14.57;;;3.40;;
12591;SDS011;6361;52.120;5.108;2023-04-24T14:10:05;11.23;;;2.88;;
12591;SDS011;6361;52.120;5.108;2023-04-24T14:12:31;14.57;;;3.22;;
12591;SDS011;6361;52.120;5.108;2023-04-24T14:14:57;14.05;;;3.28;;
12591;SDS011;6361;52.120;5.108;2023-04-24T14:17:22;12.40;;;3.58;;
12591;SDS011;6361;52.120;5.108;2023-04-24T14:19:47;10.32;;;2.90;;
12591;SDS011;6361;52.120;5.108;2023-04-24T14:22:13;13.68;;;2.80;;
12591;SDS011;6361;52.120;5.108;2023-04-24T14:24:38;9.82;;;2.67;;
12591;SDS011;6361;52.120;5.108;2023-04-24T14:27:03;8.13;;;2.92;;
12591;SDS011;6361;52.120;5.108;2023-04-24T14:29:31;11.10;;;3.22;;
12591;SDS011;6361;52.120;5.108;2023-04-24T14:31:56;10.70;;;3.70;;
12591;SDS011;6361;52.120;5.108;2023-04-24T14:34:22;14.23;;;3.65;;
12591;SDS011;6361;52.120;5.108;2023-04-24T14:36:47;12.75;;;3.75;;
12591;SDS011;6361;52.120;5.108;2023-04-24T14:39:13;11.98;;;3.30;;
12591;SDS011;6361;52.120;5.108;2023-04-24T14:41:38;12.93;;;3.45;;
12591;SDS011;6361;52.120;5.108;2023-04-24T14:44:04;11.75;;;3.30;;
12591;SDS011;6361;52.120;5.108;2023-04-24T14:46:30;11.85;;;3.40;;
12591;SDS011;6361;52.120;5.108;2023-04-24T14:48:58;16.15;;;3.42;;
12591;SDS011;6361;52.120;5.108;2023-04-24T14:51:23;12.23;;;3.65;;
12591;SDS011;6361;52.120;5.108;2023-04-24T14:53:50;14.13;;;3.25;;
12591;SDS011;6361;52.120;5.108;2023-04-24T14:56:15;14.55;;;3.63;;
12591;SDS011;6361;52.120;5.108;2023-04-24T14:58:40;16.95;;;3.60;;